Time;durP1;ratioP1;P1;durP2;ratioP2;P2;SDS_P1;SDS_P2;PMS_P1;PMS_P2;Temp;Humidity;BMP_temperature;BMP_pressure;BME280_temperature;BME280_humidity;BME280_pressure;Samples;Min_cycle;Max_cycle;Signal;HPM_P1;HPM_P2
2022/09/27 00:01:14;;;;;;;5.63;5.17;;;11.40;99.90;;;;;;4996691;28;20227;-55
2022/09/27 00:03:43;;;;;;;5.50;5.10;;;11.40;99.90;;;;;;4995048;28;20598;-55
2022/09/27 00:06:14;;;;;;;5.50;5.10;;;11.40;99.90;;;;;;5001234;28;20241;-55
2022/09/27 00:08:43;;;;;;;5.67;5.17;;;11.30;99.90;;;;;;4993801;28;20224;-55
2022/09/27 00:11:17;;;;;;;4.90;4.50;;;11.30;99.90;;;;;;5002130;28;20578;-55
2022/09/27 00:13:45;;;;;;;5.03;4.53;;;11.40;99.90;;;;;;4990667;28;20242;-55
2022/09/27 00:16:14;;;;;;;5.30;4.90;;;11.30;99.90;;;;;;4997827;28;20234;-55
2022/09/27 00:18:43;;;;;;;5.10;4.70;;;11.40;99.90;;;;;;5005263;28;20233;-55
2022/09/27 00:21:13;;;;;;;5.50;5.10;;;11.40;99.90;;;;;;5013679;28;20244;-55
2022/09/27 00:23:42;;;;;;;5.57;5.13;;;11.30;99.90;;;;;;4992756;28;20231;-55
2022/09/27 00:26:13;;;;;;;4.90;4.50;;;11.40;99.90;;;;;;4985789;28;20700;-55
2022/09/27 00:28:41;;;;;;;5.00;4.60;;;11.40;99.90;;;;;;4992202;28;20636;-54
2022/09/27 00:31:29;;;;;;;5.60;5.10;;;11.40;99.90;;;;;;4997355;28;20239;-55
2022/09/27 00:34:00;;;;;;;5.13;4.73;;;11.40;99.90;;;;;;4991091;28;20225;-55
2022/09/27 00:36:29;;;;;;;5.07;4.67;;;11.40;99.90;;;;;;4992068;28;20294;-55
2022/09/27 00:38:58;;;;;;;5.00;4.60;;;11.40;99.90;;;;;;4993655;28;20223;-55
2022/09/27 00:41:28;;;;;;;5.30;4.80;;;11.40;99.90;;;;;;4994543;28;20256;-56
2022/09/27 00:43:58;;;;;;;5.10;4.60;;;11.40;99.90;;;;;;4990620;28;20631;-55
2022/09/27 00:46:31;;;;;;;4.77;4.47;;;11.40;99.90;;;;;;5008270;28;20229;-55
2022/09/27 00:49:05;;;;;;;5.10;4.70;;;11.40;99.90;;;;;;5002921;28;20231;-55
2022/09/27 00:51:37;;;;;;;4.90;4.50;;;11.30;99.90;;;;;;4996828;28;20220;-56
2022/09/27 00:54:07;;;;;;;5.50;5.00;;;11.30;99.90;;;;;;4995421;28;20239;-55
2022/09/27 00:56:37;;;;;;;4.97;4.63;;;11.30;99.90;;;;;;4997187;28;20225;-56
2022/09/27 00:59:11;;;;;;;5.10;4.70;;;11.40;99.90;;;;;;4997435;28;20223;-55
2022/09/27 01:01:40;;;;;;;5.20;4.80;;;11.40;99.90;;;;;;5004710;28;20282;-55
2022/09/27 01:04:12;;;;;;;5.13;4.73;;;11.40;99.90;;;;;;5002093;28;20259;-56
2022/09/27 01:06:40;;;;;;;5.13;4.60;;;11.40;99.90;;;;;;4996625;28;20228;-55
2022/09/27 01:09:11;;;;;;;4.80;4.50;;;11.40;99.90;;;;;;4997160;28;20223;-55
2022/09/27 01:11:45;;;;;;;6.00;4.90;;;11.40;99.90;;;;;;5002786;28;20228;-55
2022/09/27 01:14:37;;;;;;;5.10;4.70;;;11.40;99.90;;;;;;4994945;28;20234;-54
2022/09/27 01:17:16;;;;;;;5.17;4.77;;;11.30;99.90;;;;;;4999681;28;20264;-55
2022/09/27 01:20:13;;;;;;;5.37;4.97;;;11.30;99.90;;;;;;4998794;28;20242;-55
2022/09/27 01:22:54;;;;;;;5.67;5.27;;;11.40;99.90;;;;;;4993531;28;20576;-54
2022/09/27 01:25:36;;;;;;;5.27;4.87;;;11.30;99.90;;;;;;4991688;28;20320;-55
2022/09/27 01:28:26;;;;;;;5.20;4.80;;;11.30;99.90;;;;;;4995072;28;20730;-56
2022/09/27 01:31:02;;;;;;;5.63;5.13;;;11.30;99.90;;;;;;5001378;28;20244;-55
2022/09/27 01:33:42;;;;;;;5.47;5.00;;;11.30;99.90;;;;;;4998345;28;20619;-55
2022/09/27 01:36:20;;;;;;;6.13;5.63;;;11.30;99.90;;;;;;5012139;28;20225;-55
2022/09/27 01:39:01;;;;;;;5.73;5.30;;;11.30;99.90;;;;;;5014666;28;20313;-56
2022/09/27 01:41:45;;;;;;;6.50;5.90;;;11.30;99.90;;;;;;5014697;28;20252;-54
2022/09/27 01:44:27;;;;;;;5.93;5.43;;;11.30;99.90;;;;;;4994156;28;20224;-55
2022/09/27 01:47:10;;;;;;;6.13;5.63;;;11.40;99.90;;;;;;4997359;28;20233;-56
2022/09/27 01:49:52;;;;;;;6.13;5.63;;;11.40;99.90;;;;;;4998110;28;20255;-56
2022/09/27 01:52:24;;;;;;;6.80;6.30;;;11.40;99.90;;;;;;4994164;28;20237;-55
2022/09/27 01:54:56;;;;;;;6.20;5.80;;;11.40;99.90;;;;;;4994423;28;20244;-55
2022/09/27 01:58:00;;;;;;;6.50;6.00;;;11.30;99.90;;;;;;4995947;28;20228;-55
2022/09/27 02:00:29;;;;;;;6.43;5.93;;;11.30;99.90;;;;;;4996247;28;20231;-55
2022/09/27 02:03:04;;;;;;;7.23;6.63;;;11.30;99.90;;;;;;4988405;28;20235;-55
2022/09/27 02:05:40;;;;;;;6.77;6.27;;;11.40;99.90;;;;;;5003109;28;20383;-55
2022/09/27 02:08:44;;;;;;;7.30;6.50;;;11.40;99.90;;;;;;4991655;28;20328;-56
2022/09/27 02:11:35;;;;;;;7.20;6.70;;;11.30;99.90;;;;;;4999024;28;20251;-54
2022/09/27 02:14:18;;;;;;;7.33;6.73;;;11.30;99.90;;;;;;4992460;28;20692;-55
2022/09/27 02:16:55;;;;;;;7.50;6.90;;;11.30;99.90;;;;;;4995468;28;20620;-55
2022/09/27 02:19:38;;;;;;;7.00;6.50;;;11.30;99.90;;;;;;5009655;28;20312;-55
2022/09/27 02:22:16;;;;;;;7.50;6.90;;;11.30;99.90;;;;;;5006371;28;20255;-56
2022/09/27 02:24:50;;;;;;;7.20;6.60;;;11.30;99.90;;;;;;5009801;28;20244;-55
2022/09/27 02:27:23;;;;;;;7.80;7.10;;;11.40;99.90;;;;;;4996425;28;20228;-55
2022/09/27 02:29:58;;;;;;;7.50;6.90;;;11.40;99.90;;;;;;4994175;28;20253;-55
2022/09/27 02:32:26;;;;;;;8.30;7.63;;;11.40;99.90;;;;;;4990852;28;20228;-55
2022/09/27 02:34:59;;;;;;;7.43;6.83;;;11.40;99.90;;;;;;4995104;28;20255;-56
2022/09/27 02:37:27;;;;;;;7.67;7.07;;;11.40;99.90;;;;;;4993904;28;20252;-56
2022/09/27 02:39:56;;;;;;;7.80;7.17;;;11.40;99.90;;;;;;4996971;28;20707;-54
2022/09/27 02:42:25;;;;;;;7.70;7.10;;;11.40;99.90;;;;;;5013451;28;21187;-55
2022/09/27 02:44:54;;;;;;;7.93;7.23;;;11.40;99.90;;;;;;4997261;28;20225;-56
2022/09/27 02:47:42;;;;;;;8.23;7.53;;;11.40;99.90;;;;;;4994839;28;20229;-55
2022/09/27 02:50:32;;;;;;;8.13;7.47;;;11.40;99.90;;;;;;4990780;28;20240;-55
2022/09/27 02:53:37;;;;;;;8.27;7.67;;;11.40;99.90;;;;;;4977014;28;20227;-56
2022/09/27 02:56:33;;;;;;;8.70;8.00;;;11.40;99.90;;;;;;4997093;28;20216;-55
2022/09/27 02:59:35;;;;;;;9.00;8.30;;;11.40;99.90;;;;;;4952827;28;20253;-55
2022/09/27 03:02:31;;;;;;;9.33;8.53;;;11.40;99.90;;;;;;4979083;28;20260;-56
2022/09/27 03:05:31;;;;;;;9.43;8.60;;;11.40;99.90;;;;;;4995892;28;20228;-55
2022/09/27 03:07:59;;;;;;;10.03;9.10;;;11.50;99.90;;;;;;4993224;28;20259;-55
2022/09/27 03:10:29;;;;;;;10.23;9.33;;;11.40;99.90;;;;;;4998663;28;20696;-55
2022/09/27 03:12:58;;;;;;;9.43;8.63;;;11.40;99.90;;;;;;4993543;28;20239;-54
2022/09/27 03:15:27;;;;;;;10.63;9.67;;;11.40;99.90;;;;;;4993657;28;20562;-56
2022/09/27 03:18:00;;;;;;;11.13;10.13;;;11.40;99.90;;;;;;4995886;28;20236;-55
2022/09/27 03:20:49;;;;;;;11.53;10.53;;;11.50;99.90;;;;;;5014137;28;20315;-56
2022/09/27 03:23:19;;;;;;;12.57;11.47;;;11.50;99.90;;;;;;4995222;28;20234;-55
2022/09/27 03:25:48;;;;;;;12.47;11.30;;;11.50;99.90;;;;;;4992433;28;20236;-55
2022/09/27 03:28:17;;;;;;;12.70;11.50;;;11.50;99.90;;;;;;4994240;28;20222;-55
2022/09/27 03:30:46;;;;;;;13.00;11.70;;;11.40;99.90;;;;;;4999993;28;20271;-56
2022/09/27 03:33:34;;;;;;;13.13;11.87;;;11.50;99.90;;;;;;4995568;28;20629;-56
2022/09/27 03:36:09;;;;;;;13.60;12.30;;;11.50;99.90;;;;;;5000829;28;20225;-55
2022/09/27 03:38:37;;;;;;;14.07;12.67;;;11.50;99.90;;;;;;4993817;28;20233;-54
2022/09/27 03:41:08;;;;;;;14.83;13.33;;;11.50;99.90;;;;;;5000833;28;20229;-56
2022/09/27 03:43:36;;;;;;;15.70;13.83;;;11.50;99.90;;;;;;4997388;28;20278;-54
2022/09/27 03:46:04;;;;;;;16.73;13.53;;;11.50;99.90;;;;;;4997212;28;20237;-55
2022/09/27 03:48:33;;;;;;;15.33;13.87;;;11.50;99.90;;;;;;5000196;28;20316;-55
2022/09/27 03:51:01;;;;;;;15.33;13.67;;;11.40;99.90;;;;;;4994145;28;20680;-56
2022/09/27 03:53:30;;;;;;;15.10;13.40;;;11.50;99.90;;;;;;4991080;28;20225;-55
2022/09/27 03:55:59;;;;;;;16.57;14.87;;;11.50;99.90;;;;;;5001456;28;20274;-56
2022/09/27 03:58:27;;;;;;;16.40;14.70;;;11.50;99.90;;;;;;4993627;28;20229;-54
2022/09/27 04:00:55;;;;;;;16.10;14.43;;;11.50;99.90;;;;;;5010935;28;20255;-55
2022/09/27 04:03:25;;;;;;;16.97;15.27;;;11.50;99.90;;;;;;4994129;28;20225;-55
2022/09/27 04:06:13;;;;;;;16.50;14.77;;;11.50;99.90;;;;;;4989966;28;20224;-55
2022/09/27 04:08:46;;;;;;;15.87;14.27;;;11.50;99.90;;;;;;4992150;28;20240;-54
2022/09/27 04:11:14;;;;;;;18.60;14.63;;;11.50;99.90;;;;;;5000281;28;20227;-54
2022/09/27 04:13:46;;;;;;;19.90;15.43;;;11.50;99.90;;;;;;4992474;28;20230;-55
2022/09/27 04:16:15;;;;;;;19.07;14.83;;;11.50;99.90;;;;;;4992000;28;20232;-55
2022/09/27 04:19:03;;;;;;;16.50;14.67;;;11.50;99.90;;;;;;4993562;28;20799;-55
2022/09/27 04:21:45;;;;;;;16.57;14.83;;;11.50;99.90;;;;;;4991324;28;20233;-54
2022/09/27 04:24:15;;;;;;;15.57;13.97;;;11.50;99.90;;;;;;4991832;28;20221;-56
2022/09/27 04:26:55;;;;;;;17.83;15.50;;;11.50;99.90;;;;;;4994191;28;20290;-54
2022/09/27 04:29:27;;;;;;;18.40;15.27;;;11.50;99.90;;;;;;4991884;28;20229;-55
2022/09/27 04:31:59;;;;;;;17.50;14.77;;;11.50;99.90;;;;;;4990414;28;20268;-55
2022/09/27 04:37:25;;;;;;;15.17;13.57;;;11.50;99.90;;;;;;4987247;28;20280;-55
2022/09/27 04:40:02;;;;;;;14.73;12.83;;;11.50;99.90;;;;;;4994324;28;20599;-54
2022/09/27 04:42:31;;;;;;;16.73;13.60;;;11.50;99.90;;;;;;4994326;28;20753;-55
2022/09/27 04:45:00;;;;;;;16.67;13.60;;;11.50;99.90;;;;;;4993254;28;20238;-54
2022/09/27 04:47:28;;;;;;;17.53;12.67;;;11.50;99.90;;;;;;4992066;28;20229;-54
2022/09/27 04:49:57;;;;;;;15.50;12.80;;;11.50;99.90;;;;;;4992159;28;20601;-55
2022/09/27 04:52:25;;;;;;;16.43;11.03;;;11.50;99.90;;;;;;4990429;28;20215;-55
2022/09/27 04:54:53;;;;;;;15.83;11.83;;;11.50;99.90;;;;;;5008101;28;20231;-55
2022/09/27 04:57:23;;;;;;;15.73;11.73;;;11.50;99.90;;;;;;4997955;28;20225;-55
2022/09/27 04:59:51;;;;;;;15.27;11.30;;;11.50;99.90;;;;;;5002511;28;20219;-55
2022/09/27 05:02:19;;;;;;;12.77;10.77;;;11.50;99.90;;;;;;4989151;28;20649;-54
2022/09/27 05:05:07;;;;;;;14.63;10.57;;;11.50;99.90;;;;;;4993332;28;20242;-55
2022/09/27 05:07:39;;;;;;;12.43;8.83;;;11.50;99.90;;;;;;4991613;28;20594;-53
2022/09/27 05:10:12;;;;;;;11.80;8.80;;;11.40;99.90;;;;;;4988028;28;20239;-55
2022/09/27 05:12:42;;;;;;;9.57;7.70;;;11.50;99.90;;;;;;4994196;28;20338;-53
2022/09/27 05:15:13;;;;;;;9.60;7.53;;;11.40;99.90;;;;;;4984992;28;20224;-55
2022/09/27 05:18:00;;;;;;;7.77;6.43;;;11.40;99.90;;;;;;5005000;28;20343;-55
2022/09/27 05:21:06;;;;;;;8.73;6.57;;;11.40;99.90;;;;;;4996073;28;20226;-55
2022/09/27 05:23:39;;;;;;;7.73;5.93;;;11.50;99.90;;;;;;4989856;28;20232;-55
2022/09/27 05:26:13;;;;;;;10.07;6.00;;;11.50;99.90;;;;;;4991634;28;20697;-56
2022/09/27 05:28:43;;;;;;;7.27;5.40;;;11.50;99.90;;;;;;4995141;28;20225;-55
2022/09/27 05:31:12;;;;;;;7.87;5.50;;;11.50;99.90;;;;;;4991184;28;20315;-55
2022/09/27 05:33:41;;;;;;;6.53;5.77;;;11.50;99.90;;;;;;4997837;28;20310;-55
2022/09/27 05:36:33;;;;;;;7.43;5.47;;;11.40;99.90;;;;;;5001914;28;20634;-55
2022/09/27 05:39:01;;;;;;;6.47;5.00;;;11.40;99.90;;;;;;5000110;28;20588;-55
2022/09/27 05:41:31;;;;;;;4.90;4.50;;;11.40;99.90;;;;;;5008523;28;20227;-55
2022/09/27 05:44:01;;;;;;;5.67;4.37;;;11.40;99.90;;;;;;4994725;28;20314;-55
2022/09/27 05:46:29;;;;;;;4.83;4.33;;;11.40;99.90;;;;;;5022569;28;20308;-56
2022/09/27 05:48:58;;;;;;;3.93;3.63;;;11.40;99.90;;;;;;5002597;28;20235;-56
2022/09/27 05:51:27;;;;;;;3.20;2.90;;;11.40;99.90;;;;;;4994990;28;20234;-55
2022/09/27 05:53:55;;;;;;;3.20;2.90;;;11.40;99.90;;;;;;5008784;28;20589;-56
2022/09/27 05:56:28;;;;;;;2.73;2.53;;;11.40;99.90;;;;;;4997268;28;20232;-55
2022/09/27 05:59:24;;;;;;;3.80;2.50;;;11.40;99.90;;;;;;4984187;28;20323;-56
2022/09/27 06:02:11;;;;;;;2.80;2.50;;;11.40;99.90;;;;;;4993771;28;20248;-56
2022/09/27 06:04:59;;;;;;;2.67;2.40;;;11.40;99.90;;;;;;4995480;28;20323;-56
2022/09/27 06:07:28;;;;;;;2.10;1.90;;;11.40;99.90;;;;;;4996466;28;20323;-55
2022/09/27 06:09:56;;;;;;;3.30;1.70;;;11.40;99.90;;;;;;4995841;28;20236;-56
2022/09/27 06:12:25;;;;;;;1.97;1.43;;;11.30;99.90;;;;;;4997015;28;20227;-55
2022/09/27 06:14:54;;;;;;;1.87;1.50;;;11.30;99.90;;;;;;4995853;28;20235;-56
2022/09/27 06:17:43;;;;;;;1.90;1.30;;;11.30;99.90;;;;;;4998753;28;20626;-56
2022/09/27 06:20:17;;;;;;;2.60;1.40;;;11.20;99.90;;;;;;4990560;28;20226;-56
2022/09/27 06:22:46;;;;;;;1.33;1.23;;;11.30;99.90;;;;;;4993795;28;20226;-55
2022/09/27 06:25:15;;;;;;;1.50;1.10;;;11.30;99.90;;;;;;5008406;28;20234;-55
2022/09/27 06:27:56;;;;;;;1.40;1.30;;;11.30;99.90;;;;;;5003952;28;20256;-56
2022/09/27 06:30:29;;;;;;;1.53;1.20;;;11.30;99.90;;;;;;4996484;28;20253;-55
2022/09/27 06:33:01;;;;;;;2.47;1.40;;;11.30;99.90;;;;;;5010025;28;20596;-54
2022/09/27 06:35:37;;;;;;;1.30;1.10;;;11.30;99.90;;;;;;5000908;28;20220;-56
2022/09/27 06:38:08;;;;;;;1.40;1.30;;;11.30;99.90;;;;;;4996842;28;20312;-55
2022/09/27 06:40:39;;;;;;;1.50;1.37;;;11.30;99.90;;;;;;4995828;28;20302;-56
2022/09/27 06:43:17;;;;;;;2.20;1.63;;;11.30;99.90;;;;;;4991430;28;20227;-56
2022/09/27 06:46:04;;;;;;;2.40;2.00;;;11.30;99.90;;;;;;5000193;28;20238;-56
2022/09/27 06:48:51;;;;;;;2.37;1.93;;;11.30;99.90;;;;;;4999585;28;20225;-56
2022/09/27 06:51:21;;;;;;;2.67;2.07;;;11.30;99.90;;;;;;4994040;28;20242;-56
2022/09/27 06:53:49;;;;;;;3.23;2.13;;;11.30;99.90;;;;;;4991535;28;20229;-56
2022/09/27 06:56:18;;;;;;;3.33;2.10;;;11.30;99.90;;;;;;4999055;28;20686;-56
2022/09/27 07:01:45;;;;;;;1.90;1.70;;;11.30;99.90;;;;;;5012836;28;20228;-55
2022/09/27 07:04:33;;;;;;;2.87;1.60;;;11.30;99.90;;;;;;5003580;28;20236;-56
2022/09/27 07:07:09;;;;;;;1.93;1.20;;;11.30;99.90;;;;;;4978481;28;20245;-55
2022/09/27 07:09:39;;;;;;;5.83;1.70;;;11.30;99.90;;;;;;4998434;28;20238;-55
2022/09/27 07:12:07;;;;;;;1.53;1.10;;;11.30;99.90;;;;;;4997224;28;20310;-55
2022/09/27 07:14:36;;;;;;;1.87;1.10;;;11.30;99.90;;;;;;4994615;28;20594;-56
2022/09/27 07:17:07;;;;;;;1.57;1.10;;;11.30;99.90;;;;;;4998322;28;20239;-56
2022/09/27 07:19:39;;;;;;;1.33;1.00;;;11.30;99.90;;;;;;4994514;28;20221;-56
2022/09/27 07:22:09;;;;;;;2.57;1.30;;;11.30;99.90;;;;;;4991012;28;20243;-56
2022/09/27 07:24:37;;;;;;;2.53;1.40;;;11.30;99.90;;;;;;5010197;28;20223;-55
2022/09/27 07:27:06;;;;;;;3.90;1.40;;;11.30;99.90;;;;;;4993342;28;20238;-56
2022/09/27 07:29:34;;;;;;;2.70;1.30;;;11.40;99.90;;;;;;5000120;28;20332;-55
2022/09/27 07:32:03;;;;;;;2.93;1.13;;;11.30;99.90;;;;;;4992574;28;20245;-56
2022/09/27 07:34:34;;;;;;;1.77;1.20;;;11.40;99.90;;;;;;4992774;28;20238;-56
2022/09/27 07:37:04;;;;;;;1.90;1.20;;;11.40;99.90;;;;;;5008954;28;20262;-56
2022/09/27 07:39:36;;;;;;;1.30;1.20;;;11.40;99.90;;;;;;4992398;28;20237;-56
2022/09/27 07:42:05;;;;;;;2.87;1.20;;;11.40;99.90;;;;;;4997219;28;20328;-55
2022/09/27 07:44:34;;;;;;;2.13;1.13;;;11.40;99.90;;;;;;4992507;28;20228;-56
2022/09/27 07:47:26;;;;;;;1.90;1.00;;;11.40;99.90;;;;;;4998875;28;20233;-54
2022/09/27 07:50:06;;;;;;;2.40;1.10;;;11.40;99.90;;;;;;4992697;28;20739;-55
2022/09/27 07:52:52;;;;;;;1.40;1.20;;;11.30;99.90;;;;;;4991984;28;20235;-55
2022/09/27 07:55:41;;;;;;;1.20;1.10;;;11.30;99.90;;;;;;4993449;28;20223;-56
2022/09/27 07:58:17;;;;;;;1.80;1.60;;;11.40;99.90;;;;;;4996876;28;20225;-56
2022/09/27 08:00:45;;;;;;;1.87;1.20;;;11.30;99.90;;;;;;5006486;28;20748;-56
2022/09/27 08:03:17;;;;;;;1.73;1.40;;;11.30;99.90;;;;;;5008505;28;20226;-56
2022/09/27 08:05:48;;;;;;;2.70;1.53;;;11.40;99.90;;;;;;4992527;28;20242;-55
2022/09/27 08:08:17;;;;;;;3.03;1.50;;;11.40;99.90;;;;;;4995008;28;20607;-55
2022/09/27 08:10:47;;;;;;;1.70;1.50;;;11.40;99.90;;;;;;4997255;28;20246;-56
2022/09/27 08:13:18;;;;;;;2.93;1.40;;;11.40;99.90;;;;;;4989178;28;20234;-55
2022/09/27 08:15:51;;;;;;;1.77;1.33;;;11.40;99.90;;;;;;4994082;28;20252;-55
2022/09/27 08:18:20;;;;;;;1.60;1.50;;;11.40;99.90;;;;;;4995633;28;20220;-56
2022/09/27 08:21:10;;;;;;;2.07;1.87;;;11.40;99.90;;;;;;4975187;28;20227;-55
2022/09/27 08:23:45;;;;;;;1.60;1.40;;;11.40;99.90;;;;;;4988262;28;20754;-55
2022/09/27 08:26:28;;;;;;;2.57;1.40;;;11.40;99.90;;;;;;4992172;28;20239;-56
2022/09/27 08:29:11;;;;;;;3.37;1.70;;;11.40;99.90;;;;;;4992071;28;20705;-56
2022/09/27 08:31:43;;;;;;;1.50;1.37;;;11.50;99.90;;;;;;4983982;28;20283;-55
2022/09/27 08:34:12;;;;;;;3.90;1.70;;;11.40;99.90;;;;;;4986256;28;20219;-55
2022/09/27 08:36:43;;;;;;;2.00;1.37;;;11.40;99.90;;;;;;4986559;28;20584;-56
2022/09/27 08:39:11;;;;;;;1.47;1.30;;;11.40;99.90;;;;;;4988338;28;20219;-56
2022/09/27 08:41:51;;;;;;;2.07;1.30;;;11.50;99.90;;;;;;4986031;28;20322;-55
2022/09/27 08:44:27;;;;;;;2.27;1.33;;;11.50;99.90;;;;;;4985527;28;20228;-55
2022/09/27 08:47:12;;;;;;;1.20;1.10;;;11.50;99.90;;;;;;4987326;28;20242;-55
2022/09/27 08:49:44;;;;;;;1.70;1.20;;;11.50;99.90;;;;;;4987451;28;20305;-56
2022/09/27 08:52:19;;;;;;;1.53;1.17;;;11.50;99.90;;;;;;4999124;28;20247;-55
2022/09/27 08:54:48;;;;;;;1.30;1.20;;;11.50;99.90;;;;;;4985452;28;20236;-56
2022/09/27 08:57:17;;;;;;;2.33;1.10;;;11.50;99.90;;;;;;4986444;28;20237;-56
2022/09/27 08:59:50;;;;;;;3.43;1.50;;;11.50;99.90;;;;;;5001898;28;20242;-56
2022/09/27 09:02:23;;;;;;;1.50;1.13;;;11.50;99.90;;;;;;4996227;28;20253;-55
2022/09/27 09:04:57;;;;;;;3.33;1.20;;;11.60;99.90;;;;;;4995234;28;20225;-56
2022/09/27 09:07:45;;;;;;;1.13;1.03;;;11.60;99.90;;;;;;4996879;28;20251;-56
2022/09/27 09:13:18;;;;;;;2.03;1.10;;;11.70;99.90;;;;;;4992456;28;20634;-55
2022/09/27 09:16:00;;;;;;;1.33;1.00;;;11.70;99.90;;;;;;4999316;28;20259;-56
2022/09/27 09:18:51;;;;;;;1.97;1.00;;;11.70;99.90;;;;;;5006947;28;20258;-56
2022/09/27 09:21:59;;;;;;;1.50;1.10;;;11.70;99.90;;;;;;4990062;28;20241;-54
2022/09/27 09:24:43;;;;;;;1.30;1.00;;;11.70;99.90;;;;;;4994428;28;20227;-55
2022/09/27 09:27:18;;;;;;;1.37;1.20;;;11.70;99.90;;;;;;5001324;28;20231;-56
2022/09/27 09:30:04;;;;;;;3.10;1.07;;;11.80;99.90;;;;;;5001428;28;20260;-55
2022/09/27 09:32:47;;;;;;;1.30;1.03;;;11.70;99.90;;;;;;4992766;28;20239;-55
2022/09/27 09:35:21;;;;;;;1.90;1.10;;;11.80;99.90;;;;;;4996506;28;20258;-56
2022/09/27 09:37:53;;;;;;;1.57;1.03;;;11.80;99.90;;;;;;4997252;28;20230;-56
2022/09/27 09:40:27;;;;;;;3.37;1.23;;;11.80;99.90;;;;;;5000590;28;20226;-55
2022/09/27 09:43:01;;;;;;;1.07;1.00;;;11.80;99.90;;;;;;4998563;28;20312;-56
2022/09/27 09:45:32;;;;;;;2.50;1.27;;;11.80;99.90;;;;;;5000273;28;20257;-56
2022/09/27 09:48:10;;;;;;;2.07;1.40;;;11.90;99.90;;;;;;4997784;28;20236;-55
2022/09/27 09:50:44;;;;;;;2.57;1.10;;;11.90;99.90;;;;;;4992928;28;20704;-55
2022/09/27 09:53:18;;;;;;;2.80;1.43;;;11.90;99.90;;;;;;4986163;28;20705;-55
2022/09/27 09:55:52;;;;;;;1.27;1.20;;;11.90;99.90;;;;;;4989710;28;20231;-55
2022/09/27 09:58:26;;;;;;;2.03;1.27;;;11.90;99.90;;;;;;4991292;28;20219;-56
2022/09/27 10:01:12;;;;;;;1.17;1.07;;;11.90;99.90;;;;;;4987328;28;20281;-55
2022/09/27 10:03:41;;;;;;;2.27;1.00;;;11.90;99.90;;;;;;4985856;28;20730;-56
2022/09/27 10:06:11;;;;;;;1.87;1.20;;;12.00;99.90;;;;;;4989626;28;20223;-55
2022/09/27 10:08:39;;;;;;;2.63;1.03;;;11.90;99.90;;;;;;4993760;28;20228;-56
2022/09/27 10:11:37;;;;;;;2.07;1.00;;;11.90;99.90;;;;;;4989809;28;20714;-53
2022/09/27 10:14:13;;;;;;;1.70;1.10;;;11.90;99.90;;;;;;4987385;28;20259;-55
2022/09/27 10:16:47;;;;;;;1.67;1.10;;;11.90;99.90;;;;;;4988954;28;20223;-55
2022/09/27 10:19:19;;;;;;;1.90;1.20;;;11.90;99.90;;;;;;4988190;28;20230;-58
2022/09/27 10:21:50;;;;;;;5.50;1.23;;;12.00;99.90;;;;;;4985034;28;20227;-57
2022/09/27 10:24:19;;;;;;;1.27;1.13;;;12.00;99.90;;;;;;4988181;28;20235;-56
2022/09/27 10:27:10;;;;;;;1.47;1.07;;;11.90;99.90;;;;;;4994944;28;20250;-57
2022/09/27 10:29:40;;;;;;;1.50;1.40;;;11.90;99.90;;;;;;4990873;28;20289;-55
2022/09/27 10:32:23;;;;;;;1.17;1.07;;;11.90;99.90;;;;;;4987146;28;20228;-56
2022/09/27 10:35:20;;;;;;;2.03;1.50;;;11.90;99.90;;;;;;5004058;28;20231;-56
2022/09/27 10:37:52;;;;;;;2.37;1.53;;;11.80;99.90;;;;;;4989018;28;20259;-56
2022/09/27 10:40:27;;;;;;;1.90;1.60;;;11.90;99.90;;;;;;4988217;28;20235;-57
2022/09/27 10:42:59;;;;;;;1.43;1.33;;;11.90;99.90;;;;;;4986870;28;20230;-56
2022/09/27 10:45:47;;;;;;;1.70;1.60;;;11.80;99.90;;;;;;4988749;28;20229;-56
2022/09/27 10:48:22;;;;;;;2.87;1.73;;;11.90;99.90;;;;;;4986782;28;20743;-56
2022/09/27 10:50:59;;;;;;;3.30;1.80;;;11.90;99.90;;;;;;4988460;28;20229;-56
2022/09/27 10:53:46;;;;;;;1.67;1.57;;;11.80;99.90;;;;;;4986827;28;20219;-56
2022/09/27 10:56:24;;;;;;;2.40;1.50;;;11.90;99.90;;;;;;4988609;28;20698;-56
2022/09/27 10:58:54;;;;;;;1.70;1.30;;;11.90;99.90;;;;;;5003631;28;20720;-56
2022/09/27 11:01:24;;;;;;;2.53;1.50;;;12.00;99.90;;;;;;4988698;28;20716;-56
2022/09/27 11:04:21;;;;;;;2.40;1.30;;;12.00;99.90;;;;;;4988609;28;20714;-55
2022/09/27 11:06:49;;;;;;;1.13;1.00;;;12.00;99.90;;;;;;4990801;28;20732;-56
2022/09/27 11:09:23;;;;;;;1.17;1.07;;;12.10;99.90;;;;;;4990449;28;20264;-56
2022/09/27 11:12:08;;;;;;;1.13;0.80;;;12.20;99.90;;;;;;4988965;28;20730;-54
2022/09/27 11:14:39;;;;;;;0.83;0.80;;;12.20;99.90;;;;;;4988376;28;20310;-56
2022/09/27 11:17:13;;;;;;;1.03;0.93;;;12.30;99.90;;;;;;4989169;28;20228;-56
2022/09/27 11:20:03;;;;;;;1.70;0.90;;;12.30;99.90;;;;;;5004008;28;20229;-56
2022/09/27 11:22:48;;;;;;;2.93;0.87;;;12.40;99.90;;;;;;4984484;28;20236;-56
2022/09/27 11:25:33;;;;;;;2.87;1.00;;;12.50;99.90;;;;;;4987870;28;20229;-55
2022/09/27 11:28:12;;;;;;;0.83;0.80;;;12.60;99.90;;;;;;4987739;28;20252;-56
2022/09/27 11:30:51;;;;;;;1.17;0.80;;;12.50;99.90;;;;;;4986601;28;20243;-55
2022/09/27 11:33:53;;;;;;;1.03;0.77;;;12.60;99.90;;;;;;4983427;28;20245;-57
2022/09/27 11:36:34;;;;;;;1.30;0.80;;;12.60;99.90;;;;;;5003474;28;20233;-57
2022/09/27 11:39:09;;;;;;;1.90;0.80;;;12.60;99.90;;;;;;4988058;28;20236;-56
2022/09/27 11:41:52;;;;;;;1.80;0.90;;;12.70;99.90;;;;;;4986904;28;20241;-56
2022/09/27 11:44:36;;;;;;;2.13;0.90;;;12.70;99.90;;;;;;4986159;28;20232;-55
2022/09/27 11:47:15;;;;;;;1.47;0.80;;;12.70;99.90;;;;;;4986245;28;20300;-56
2022/09/27 11:50:37;;;;;;;3.10;1.53;;;12.70;99.90;;;;;;4987090;28;20240;-55
2022/09/27 11:53:17;;;;;;;1.67;0.80;;;12.70;99.90;;;;;;4943118;28;20788;-55
2022/09/27 11:55:55;;;;;;;1.27;0.77;;;12.70;99.90;;;;;;4987833;28;20236;-56
2022/09/27 11:58:30;;;;;;;2.73;1.00;;;12.80;99.90;;;;;;4990207;28;20224;-56
2022/09/27 12:01:20;;;;;;;0.90;0.70;;;12.80;99.90;;;;;;4987073;28;20260;-56
2022/09/27 12:04:13;;;;;;;1.13;0.67;;;12.80;99.90;;;;;;4984424;28;20225;-56
2022/09/27 12:06:53;;;;;;;1.93;0.93;;;12.80;99.90;;;;;;4986199;28;20228;-55
2022/09/27 12:09:24;;;;;;;1.77;0.87;;;12.70;99.90;;;;;;4987434;28;20228;-57
2022/09/27 12:11:55;;;;;;;1.30;0.70;;;12.80;99.90;;;;;;4987072;28;20777;-56
2022/09/27 12:14:32;;;;;;;1.77;0.80;;;12.70;99.90;;;;;;4986607;28;20244;-57
2022/09/27 12:17:04;;;;;;;1.00;0.70;;;12.80;99.90;;;;;;4986995;28;20220;-56
2022/09/27 12:19:38;;;;;;;1.43;0.80;;;12.70;99.90;;;;;;4989311;28;20239;-57
2022/09/27 12:22:16;;;;;;;2.00;0.73;;;12.80;99.90;;;;;;4983625;28;20229;-56
2022/09/27 12:25:05;;;;;;;1.87;0.70;;;12.80;99.90;;;;;;4987546;28;20229;-57
2022/09/27 12:27:44;;;;;;;1.13;0.60;;;12.80;99.90;;;;;;4987466;28;20318;-57
2022/09/27 12:30:18;;;;;;;1.50;0.90;;;12.70;99.90;;;;;;4986197;28;20251;-56
2022/09/27 12:32:57;;;;;;;1.77;0.77;;;12.70;99.90;;;;;;4986456;28;20248;-56
2022/09/27 12:35:29;;;;;;;2.53;0.80;;;12.70;99.90;;;;;;4985857;28;20320;-56
2022/09/27 12:38:01;;;;;;;0.83;0.60;;;12.60;99.90;;;;;;4989411;28;20228;-56
2022/09/27 12:40:33;;;;;;;1.53;0.70;;;12.60;99.90;;;;;;4986852;28;20224;-56
2022/09/27 12:43:11;;;;;;;2.23;0.97;;;12.50;99.90;;;;;;4984632;28;20276;-56
2022/09/27 12:46:07;;;;;;;1.27;0.70;;;12.60;99.90;;;;;;4992919;28;20231;-57
2022/09/27 12:48:44;;;;;;;1.37;0.90;;;12.70;99.90;;;;;;4990284;28;20708;-57
2022/09/27 12:51:15;;;;;;;1.70;0.60;;;12.80;99.90;;;;;;4991107;28;20250;-55
2022/09/27 12:54:04;;;;;;;1.27;0.73;;;12.80;99.90;;;;;;4987977;28;20235;-55
2022/09/27 12:56:44;;;;;;;2.43;0.60;;;12.90;99.90;;;;;;4991491;28;20279;-57
2022/09/27 12:59:39;;;;;;;2.57;1.00;;;12.80;99.90;;;;;;4990459;28;20236;-56
2022/09/27 13:02:39;;;;;;;1.00;0.90;;;12.80;99.90;;;;;;4987368;28;20224;-56
2022/09/27 13:05:43;;;;;;;1.47;0.80;;;12.70;99.90;;;;;;4989199;28;20221;-55
2022/09/27 13:08:36;;;;;;;0.67;0.67;;;12.70;99.90;;;;;;4987190;28;20230;-56
2022/09/27 13:11:12;;;;;;;2.83;0.90;;;12.70;99.90;;;;;;4988837;28;20237;-56
2022/09/27 13:13:41;;;;;;;2.53;1.10;;;12.60;99.90;;;;;;4988315;28;20313;-57
2022/09/27 13:16:11;;;;;;;2.17;0.97;;;12.50;99.90;;;;;;4990420;28;20225;-57
2022/09/27 13:18:54;;;;;;;1.50;0.90;;;12.50;99.90;;;;;;4988902;28;20260;-57
2022/09/27 13:21:56;;;;;;;1.60;1.30;;;12.30;99.90;;;;;;4988021;28;20276;-56
2022/09/27 13:24:49;;;;;;;1.40;1.00;;;12.30;99.90;;;;;;4983523;28;20233;-56
2022/09/27 13:27:43;;;;;;;1.83;0.90;;;12.20;99.90;;;;;;4988319;28;20312;-56
2022/09/27 13:30:47;;;;;;;2.73;1.27;;;12.20;99.90;;;;;;4988899;28;20253;-57
2022/09/27 13:33:45;;;;;;;3.27;1.10;;;12.20;99.90;;;;;;4986270;28;20614;-57
2022/09/27 13:36:32;;;;;;;1.90;0.83;;;12.30;99.90;;;;;;4988813;28;20576;-52
2022/09/27 13:39:20;;;;;;;2.97;1.30;;;12.30;99.90;;;;;;4988203;28;20311;-56
2022/09/27 13:42:32;;;;;;;2.93;1.20;;;12.40;99.90;;;;;;4986605;28;20234;-56